sensor_id;sensor_type;location;lat;lon;timestamp;temperature;humidity
43015;DHT22;28637;50.554;7.032;2023-07-08T00:03:26;15.70;99.90
43015;DHT22;28637;50.554;7.032;2023-07-08T00:08:27;15.70;99.90
43015;DHT22;28637;50.554;7.032;2023-07-08T00:13:27;15.40;99.90
43015;DHT22;28637;50.554;7.032;2023-07-08T00:18:28;15.30;99.90
43015;DHT22;28637;50.554;7.032;2023-07-08T00:23:29;15.40;99.90
43015;DHT22;28637;50.554;7.032;2023-07-08T00:28:29;15.40;99.90
43015;DHT22;28637;50.554;7.032;2023-07-08T00:33:30;15.30;99.90
43015;DHT22;28637;50.554;7.032;2023-07-08T00:38:30;15.20;99.90
43015;DHT22;28637;50.554;7.032;2023-07-08T00:43:48;15.10;99.90
43015;DHT22;28637;50.554;7.032;2023-07-08T00:48:50;15.10;99.90
43015;DHT22;28637;50.554;7.032;2023-07-08T00:53:52;15.20;99.90
43015;DHT22;28637;50.554;7.032;2023-07-08T00:58:58;15.10;99.90
43015;DHT22;28637;50.554;7.032;2023-07-08T01:04:08;15.10;99.90
43015;DHT22;28637;50.554;7.032;2023-07-08T01:09:13;15.00;99.90
43015;DHT22;28637;50.554;7.032;2023-07-08T01:14:17;14.90;99.90
43015;DHT22;28637;50.554;7.032;2023-07-08T01:19:21;14.80;99.90
43015;DHT22;28637;50.554;7.032;2023-07-08T01:24:35;14.90;99.90
43015;DHT22;28637;50.554;7.032;2023-07-08T01:29:36;14.80;99.90
43015;DHT22;28637;50.554;7.032;2023-07-08T01:34:37;14.80;99.90
43015;DHT22;28637;50.554;7.032;2023-07-08T01:39:38;14.80;99.90
43015;DHT22;28637;50.554;7.032;2023-07-08T01:44:38;14.80;99.90
43015;DHT22;28637;50.554;7.032;2023-07-08T01:49:40;14.70;99.90
43015;DHT22;28637;50.554;7.032;2023-07-08T01:54:41;14.70;99.90
43015;DHT22;28637;50.554;7.032;2023-07-08T01:59:42;14.60;99.90
43015;DHT22;28637;50.554;7.032;2023-07-08T02:04:43;14.60;99.90
43015;DHT22;28637;50.554;7.032;2023-07-08T02:09:43;14.60;99.90
43015;DHT22;28637;50.554;7.032;2023-07-08T02:14:44;14.60;99.90
43015;DHT22;28637;50.554;7.032;2023-07-08T02:19:44;14.50;99.90
43015;DHT22;28637;50.554;7.032;2023-07-08T02:24:45;14.40;99.90
43015;DHT22;28637;50.554;7.032;2023-07-08T02:29:45;14.20;99.90
43015;DHT22;28637;50.554;7.032;2023-07-08T02:34:46;14.20;99.90
43015;DHT22;28637;50.554;7.032;2023-07-08T02:39:47;14.20;99.90
43015;DHT22;28637;50.554;7.032;2023-07-08T02:44:47;14.20;99.90
43015;DHT22;28637;50.554;7.032;2023-07-08T02:49:48;14.30;99.90
43015;DHT22;28637;50.554;7.032;2023-07-08T02:54:48;14.10;99.90
43015;DHT22;28637;50.554;7.032;2023-07-08T02:59:50;13.90;99.90
43015;DHT22;28637;50.554;7.032;2023-07-08T03:04:51;13.90;99.90
43015;DHT22;28637;50.554;7.032;2023-07-08T03:09:54;14.00;99.90
43015;DHT22;28637;50.554;7.032;2023-07-08T03:14:55;14.00;99.90
43015;DHT22;28637;50.554;7.032;2023-07-08T03:19:55;14.00;99.90
43015;DHT22;28637;50.554;7.032;2023-07-08T03:24:56;14.00;99.90
43015;DHT22;28637;50.554;7.032;2023-07-08T03:29:57;14.00;99.90
43015;DHT22;28637;50.554;7.032;2023-07-08T03:34:57;14.10;99.90
43015;DHT22;28637;50.554;7.032;2023-07-08T03:39:58;14.10;99.90
43015;DHT22;28637;50.554;7.032;2023-07-08T03:44:58;14.20;99.90
43015;DHT22;28637;50.554;7.032;2023-07-08T03:49:59;14.20;99.90
43015;DHT22;28637;50.554;7.032;2023-07-08T03:55:00;14.30;99.90
43015;DHT22;28637;50.554;7.032;2023-07-08T04:00:00;14.30;99.90
43015;DHT22;28637;50.554;7.032;2023-07-08T04:05:01;14.40;99.90
43015;DHT22;28637;50.554;7.032;2023-07-08T04:10:03;14.30;99.90
43015;DHT22;28637;50.554;7.032;2023-07-08T04:15:04;14.40;99.90
43015;DHT22;28637;50.554;7.032;2023-07-08T04:20:05;14.50;99.90
43015;DHT22;28637;50.554;7.032;2023-07-08T04:25:06;14.50;99.90
43015;DHT22;28637;50.554;7.032;2023-07-08T04:30:14;14.60;99.90
43015;DHT22;28637;50.554;7.032;2023-07-08T04:35:18;14.70;99.90
43015;DHT22;28637;50.554;7.032;2023-07-08T04:40:20;14.90;99.90
43015;DHT22;28637;50.554;7.032;2023-07-08T04:45:21;15.00;99.90
43015;DHT22;28637;50.554;7.032;2023-07-08T04:50:22;15.10;99.90
43015;DHT22;28637;50.554;7.032;2023-07-08T04:55:23;15.30;99.90
43015;DHT22;28637;50.554;7.032;2023-07-08T05:00:23;15.40;99.90
43015;DHT22;28637;50.554;7.032;2023-07-08T05:05:24;15.50;99.90
43015;DHT22;28637;50.554;7.032;2023-07-08T05:10:25;15.70;99.90
43015;DHT22;28637;50.554;7.032;2023-07-08T05:15:26;15.80;99.90
43015;DHT22;28637;50.554;7.032;2023-07-08T05:20:27;16.00;99.90
43015;DHT22;28637;50.554;7.032;2023-07-08T05:25:30;16.10;99.90
43015;DHT22;28637;50.554;7.032;2023-07-08T05:30:31;16.30;99.90
43015;DHT22;28637;50.554;7.032;2023-07-08T05:35:32;16.60;99.90
43015;DHT22;28637;50.554;7.032;2023-07-08T05:40:33;16.80;99.90
43015;DHT22;28637;50.554;7.032;2023-07-08T05:45:33;17.00;99.90
43015;DHT22;28637;50.554;7.032;2023-07-08T05:50:36;17.20;99.90
43015;DHT22;28637;50.554;7.032;2023-07-08T05:55:37;17.60;99.90
43015;DHT22;28637;50.554;7.032;2023-07-08T06:00:38;17.80;99.90
43015;DHT22;28637;50.554;7.032;2023-07-08T06:05:39;18.20;99.90
43015;DHT22;28637;50.554;7.032;2023-07-08T06:10:46;18.50;99.90
43015;DHT22;28637;50.554;7.032;2023-07-08T06:15:46;18.90;99.90
43015;DHT22;28637;50.554;7.032;2023-07-08T06:20:52;19.30;99.90
43015;DHT22;28637;50.554;7.032;2023-07-08T06:25:53;19.60;99.90
43015;DHT22;28637;50.554;7.032;2023-07-08T06:30:53;19.90;99.90
43015;DHT22;28637;50.554;7.032;2023-07-08T06:35:54;20.20;99.90
43015;DHT22;28637;50.554;7.032;2023-07-08T06:40:55;20.40;99.90
43015;DHT22;28637;50.554;7.032;2023-07-08T06:45:55;20.70;99.90
43015;DHT22;28637;50.554;7.032;2023-07-08T06:50:57;21.00;99.90
43015;DHT22;28637;50.554;7.032;2023-07-08T06:55:58;21.30;99.90
43015;DHT22;28637;50.554;7.032;2023-07-08T07:00:58;21.60;99.90
43015;DHT22;28637;50.554;7.032;2023-07-08T07:05:59;21.80;99.90
43015;DHT22;28637;50.554;7.032;2023-07-08T07:11:00;22.10;99.90
43015;DHT22;28637;50.554;7.032;2023-07-08T07:16:00;22.40;99.90
43015;DHT22;28637;50.554;7.032;2023-07-08T07:21:01;22.70;99.90
43015;DHT22;28637;50.554;7.032;2023-07-08T07:26:01;23.10;99.90
43015;DHT22;28637;50.554;7.032;2023-07-08T07:31:04;23.40;99.90
43015;DHT22;28637;50.554;7.032;2023-07-08T07:36:07;23.70;99.90
43015;DHT22;28637;50.554;7.032;2023-07-08T07:41:08;24.10;99.90
43015;DHT22;28637;50.554;7.032;2023-07-08T07:46:11;24.40;99.90
43015;DHT22;28637;50.554;7.032;2023-07-08T07:51:12;24.70;99.90
43015;DHT22;28637;50.554;7.032;2023-07-08T07:56:13;25.00;99.40
43015;DHT22;28637;50.554;7.032;2023-07-08T08:01:13;25.30;99.80
43015;DHT22;28637;50.554;7.032;2023-07-08T08:06:14;25.70;98.90
43015;DHT22;28637;50.554;7.032;2023-07-08T08:11:15;26.00;98.60
43015;DHT22;28637;50.554;7.032;2023-07-08T08:16:16;26.20;96.60
43015;DHT22;28637;50.554;7.032;2023-07-08T08:21:16;26.40;95.60
43015;DHT22;28637;50.554;7.032;2023-07-08T08:26:17;26.70;94.10
43015;DHT22;28637;50.554;7.032;2023-07-08T08:31:17;26.90;94.30
43015;DHT22;28637;50.554;7.032;2023-07-08T08:36:18;27.20;91.70
43015;DHT22;28637;50.554;7.032;2023-07-08T08:41:30;27.40;91.00
43015;DHT22;28637;50.554;7.032;2023-07-08T08:46:56;27.70;91.20
43015;DHT22;28637;50.554;7.032;2023-07-08T08:51:59;27.80;91.20
43015;DHT22;28637;50.554;7.032;2023-07-08T09:02:23;28.10;88.30
43015;DHT22;28637;50.554;7.032;2023-07-08T09:07:27;28.30;86.60
43015;DHT22;28637;50.554;7.032;2023-07-08T09:12:29;28.50;87.20
43015;DHT22;28637;50.554;7.032;2023-07-08T09:17:32;28.70;84.50
43015;DHT22;28637;50.554;7.032;2023-07-08T09:22:44;28.90;84.30
43015;DHT22;28637;50.554;7.032;2023-07-08T09:27:47;29.10;87.80
43015;DHT22;28637;50.554;7.032;2023-07-08T09:32:48;29.20;81.60
43015;DHT22;28637;50.554;7.032;2023-07-08T09:37:50;29.30;83.50
43015;DHT22;28637;50.554;7.032;2023-07-08T09:42:52;29.50;84.30
43015;DHT22;28637;50.554;7.032;2023-07-08T09:47:55;29.70;83.30
43015;DHT22;28637;50.554;7.032;2023-07-08T09:52:57;29.90;81.40
43015;DHT22;28637;50.554;7.032;2023-07-08T09:58:00;30.10;79.50
43015;DHT22;28637;50.554;7.032;2023-07-08T10:08:36;30.40;81.40
43015;DHT22;28637;50.554;7.032;2023-07-08T10:13:42;30.40;75.60
43015;DHT22;28637;50.554;7.032;2023-07-08T10:18:44;30.40;75.60
43015;DHT22;28637;50.554;7.032;2023-07-08T10:29:34;30.60;77.60
43015;DHT22;28637;50.554;7.032;2023-07-08T11:07:12;31.30;69.20
43015;DHT22;28637;50.554;7.032;2023-07-08T11:12:40;31.50;75.50
43015;DHT22;28637;50.554;7.032;2023-07-08T11:17:52;31.90;74.70
43015;DHT22;28637;50.554;7.032;2023-07-08T11:23:04;32.00;73.30
43015;DHT22;28637;50.554;7.032;2023-07-08T11:28:12;32.20;68.80
43015;DHT22;28637;50.554;7.032;2023-07-08T11:33:17;32.10;72.60
43015;DHT22;28637;50.554;7.032;2023-07-08T11:38:20;32.20;70.40
43015;DHT22;28637;50.554;7.032;2023-07-08T11:43:23;32.30;72.40
43015;DHT22;28637;50.554;7.032;2023-07-08T11:48:38;32.50;66.80
43015;DHT22;28637;50.554;7.032;2023-07-08T11:53:49;32.50;68.40
43015;DHT22;28637;50.554;7.032;2023-07-08T12:09:25;33.10;64.80
43015;DHT22;28637;50.554;7.032;2023-07-08T12:14:27;33.20;68.60
43015;DHT22;28637;50.554;7.032;2023-07-08T12:19:29;33.40;66.60
43015;DHT22;28637;50.554;7.032;2023-07-08T12:24:32;33.60;65.70
43015;DHT22;28637;50.554;7.032;2023-07-08T12:29:32;33.60;66.20
43015;DHT22;28637;50.554;7.032;2023-07-08T12:34:33;33.60;66.40
43015;DHT22;28637;50.554;7.032;2023-07-08T12:39:34;33.40;64.80
43015;DHT22;28637;50.554;7.032;2023-07-08T12:44:35;33.70;67.10
43015;DHT22;28637;50.554;7.032;2023-07-08T12:49:41;34.10;67.20
43015;DHT22;28637;50.554;7.032;2023-07-08T12:54:41;34.10;68.00
43015;DHT22;28637;50.554;7.032;2023-07-08T12:59:42;34.40;68.30
43015;DHT22;28637;50.554;7.032;2023-07-08T13:04:44;34.90;66.70
43015;DHT22;28637;50.554;7.032;2023-07-08T13:09:46;34.70;64.30
43015;DHT22;28637;50.554;7.032;2023-07-08T13:14:48;34.30;61.70
43015;DHT22;28637;50.554;7.032;2023-07-08T13:19:49;33.70;63.00
43015;DHT22;28637;50.554;7.032;2023-07-08T13:25:02;33.40;63.30
43015;DHT22;28637;50.554;7.032;2023-07-08T13:30:20;33.50;64.60
43015;DHT22;28637;50.554;7.032;2023-07-08T13:35:40;33.50;62.70
43015;DHT22;28637;50.554;7.032;2023-07-08T13:40:45;33.80;63.30
43015;DHT22;28637;50.554;7.032;2023-07-08T13:45:46;33.60;64.50
43015;DHT22;28637;50.554;7.032;2023-07-08T13:56:20;33.50;63.90
43015;DHT22;28637;50.554;7.032;2023-07-08T14:01:24;33.20;65.80
43015;DHT22;28637;50.554;7.032;2023-07-08T14:06:29;33.10;62.80
43015;DHT22;28637;50.554;7.032;2023-07-08T14:11:30;33.60;67.10
43015;DHT22;28637;50.554;7.032;2023-07-08T14:16:34;34.10;63.60
43015;DHT22;28637;50.554;7.032;2023-07-08T14:21:36;34.10;64.20
43015;DHT22;28637;50.554;7.032;2023-07-08T14:26:37;33.40;64.40
43015;DHT22;28637;50.554;7.032;2023-07-08T14:31:38;33.60;65.10
43015;DHT22;28637;50.554;7.032;2023-07-08T14:36:39;34.50;64.30
43015;DHT22;28637;50.554;7.032;2023-07-08T14:41:40;34.80;61.40
43015;DHT22;28637;50.554;7.032;2023-07-08T14:46:42;34.90;59.30
43015;DHT22;28637;50.554;7.032;2023-07-08T14:51:42;35.30;62.00
43015;DHT22;28637;50.554;7.032;2023-07-08T14:56:43;35.10;62.90
43015;DHT22;28637;50.554;7.032;2023-07-08T15:01:44;35.40;61.10
43015;DHT22;28637;50.554;7.032;2023-07-08T15:06:46;35.90;62.70
43015;DHT22;28637;50.554;7.032;2023-07-08T15:11:47;36.30;60.30
43015;DHT22;28637;50.554;7.032;2023-07-08T15:16:48;36.50;60.10
43015;DHT22;28637;50.554;7.032;2023-07-08T15:21:50;36.00;56.40
43015;DHT22;28637;50.554;7.032;2023-07-08T15:26:51;36.00;60.10
43015;DHT22;28637;50.554;7.032;2023-07-08T15:31:52;36.30;62.60
43015;DHT22;28637;50.554;7.032;2023-07-08T15:36:53;36.20;57.40
43015;DHT22;28637;50.554;7.032;2023-07-08T15:41:53;36.00;58.60
43015;DHT22;28637;50.554;7.032;2023-07-08T15:46:54;36.10;59.30
43015;DHT22;28637;50.554;7.032;2023-07-08T15:51:56;36.60;60.90
43015;DHT22;28637;50.554;7.032;2023-07-08T15:56:56;37.10;58.90
43015;DHT22;28637;50.554;7.032;2023-07-08T16:02:03;37.00;59.10
43015;DHT22;28637;50.554;7.032;2023-07-08T16:07:06;36.30;57.80
43015;DHT22;28637;50.554;7.032;2023-07-08T16:12:10;35.40;59.10
43015;DHT22;28637;50.554;7.032;2023-07-08T16:17:11;34.90;59.80
43015;DHT22;28637;50.554;7.032;2023-07-08T16:22:12;34.20;59.70
43015;DHT22;28637;50.554;7.032;2023-07-08T16:27:13;33.80;60.90
43015;DHT22;28637;50.554;7.032;2023-07-08T16:32:14;33.70;61.30
43015;DHT22;28637;50.554;7.032;2023-07-08T16:37:15;33.70;61.90
43015;DHT22;28637;50.554;7.032;2023-07-08T16:42:15;33.40;61.30
43015;DHT22;28637;50.554;7.032;2023-07-08T16:47:16;32.70;64.20
43015;DHT22;28637;50.554;7.032;2023-07-08T16:52:17;32.40;64.00
43015;DHT22;28637;50.554;7.032;2023-07-08T16:57:18;32.70;64.30
43015;DHT22;28637;50.554;7.032;2023-07-08T17:02:19;32.80;65.10
43015;DHT22;28637;50.554;7.032;2023-07-08T17:07:21;32.80;64.00
43015;DHT22;28637;50.554;7.032;2023-07-08T17:12:22;32.80;63.20
43015;DHT22;28637;50.554;7.032;2023-07-08T17:17:23;32.30;67.20
43015;DHT22;28637;50.554;7.032;2023-07-08T17:22:23;32.00;67.10
43015;DHT22;28637;50.554;7.032;2023-07-08T17:27:24;31.70;68.40
43015;DHT22;28637;50.554;7.032;2023-07-08T17:32:24;31.60;69.20
43015;DHT22;28637;50.554;7.032;2023-07-08T17:37:25;31.30;67.70
43015;DHT22;28637;50.554;7.032;2023-07-08T17:42:26;31.10;67.60
43015;DHT22;28637;50.554;7.032;2023-07-08T17:47:26;31.10;67.90
43015;DHT22;28637;50.554;7.032;2023-07-08T17:52:27;31.00;68.20
43015;DHT22;28637;50.554;7.032;2023-07-08T17:57:28;31.10;70.10
43015;DHT22;28637;50.554;7.032;2023-07-08T18:02:28;31.00;69.60
43015;DHT22;28637;50.554;7.032;2023-07-08T18:07:29;30.80;71.30
43015;DHT22;28637;50.554;7.032;2023-07-08T18:12:29;30.60;72.90
43015;DHT22;28637;50.554;7.032;2023-07-08T18:17:32;30.40;72.40
43015;DHT22;28637;50.554;7.032;2023-07-08T18:22:32;30.20;77.80
43015;DHT22;28637;50.554;7.032;2023-07-08T18:27:33;30.10;75.50
43015;DHT22;28637;50.554;7.032;2023-07-08T18:32:33;30.00;76.20
43015;DHT22;28637;50.554;7.032;2023-07-08T18:37:34;29.60;80.20
43015;DHT22;28637;50.554;7.032;2023-07-08T18:42:35;29.40;80.50
43015;DHT22;28637;50.554;7.032;2023-07-08T18:47:35;29.20;75.90
43015;DHT22;28637;50.554;7.032;2023-07-08T18:52:36;29.10;77.20
43015;DHT22;28637;50.554;7.032;2023-07-08T18:57:36;28.90;77.90
43015;DHT22;28637;50.554;7.032;2023-07-08T19:07:53;28.60;80.70
43015;DHT22;28637;50.554;7.032;2023-07-08T19:12:54;28.20;85.60
43015;DHT22;28637;50.554;7.032;2023-07-08T19:17:56;27.60;85.30
43015;DHT22;28637;50.554;7.032;2023-07-08T19:22:56;27.10;88.90
43015;DHT22;28637;50.554;7.032;2023-07-08T19:27:57;26.80;89.80
43015;DHT22;28637;50.554;7.032;2023-07-08T19:32:59;26.40;91.00
43015;DHT22;28637;50.554;7.032;2023-07-08T19:38:01;26.00;91.60
43015;DHT22;28637;50.554;7.032;2023-07-08T19:43:02;25.60;91.80
43015;DHT22;28637;50.554;7.032;2023-07-08T19:48:03;25.40;93.00
43015;DHT22;28637;50.554;7.032;2023-07-08T19:53:04;25.00;93.50
43015;DHT22;28637;50.554;7.032;2023-07-08T19:58:10;24.60;94.30
43015;DHT22;28637;50.554;7.032;2023-07-08T20:03:14;24.00;96.80
43015;DHT22;28637;50.554;7.032;2023-07-08T20:13:27;23.40;99.90
43015;DHT22;28637;50.554;7.032;2023-07-08T20:18:31;23.20;99.90
43015;DHT22;28637;50.554;7.032;2023-07-08T20:23:33;22.90;99.90
43015;DHT22;28637;50.554;7.032;2023-07-08T20:28:34;22.60;99.90
43015;DHT22;28637;50.554;7.032;2023-07-08T20:33:35;22.30;99.90
43015;DHT22;28637;50.554;7.032;2023-07-08T20:38:36;21.90;99.90
43015;DHT22;28637;50.554;7.032;2023-07-08T20:43:36;21.80;99.90
43015;DHT22;28637;50.554;7.032;2023-07-08T20:48:37;21.70;99.90
43015;DHT22;28637;50.554;7.032;2023-07-08T20:53:38;21.50;99.90
43015;DHT22;28637;50.554;7.032;2023-07-08T20:58:38;21.30;99.90
43015;DHT22;28637;50.554;7.032;2023-07-08T21:03:42;21.10;99.90
43015;DHT22;28637;50.554;7.032;2023-07-08T21:08:43;21.10;99.90
43015;DHT22;28637;50.554;7.032;2023-07-08T21:13:44;21.00;99.90
43015;DHT22;28637;50.554;7.032;2023-07-08T21:18:45;20.80;99.90
43015;DHT22;28637;50.554;7.032;2023-07-08T21:23:47;20.90;99.90
43015;DHT22;28637;50.554;7.032;2023-07-08T21:28:51;20.90;99.90
43015;DHT22;28637;50.554;7.032;2023-07-08T21:33:52;20.70;99.90
43015;DHT22;28637;50.554;7.032;2023-07-08T21:38:57;20.50;99.90
43015;DHT22;28637;50.554;7.032;2023-07-08T21:43:58;20.60;99.90
43015;DHT22;28637;50.554;7.032;2023-07-08T21:48:59;20.60;99.90
43015;DHT22;28637;50.554;7.032;2023-07-08T21:54:04;20.60;99.90
43015;DHT22;28637;50.554;7.032;2023-07-08T21:59:19;20.70;99.90
43015;DHT22;28637;50.554;7.032;2023-07-08T22:04:22;20.70;99.90
43015;DHT22;28637;50.554;7.032;2023-07-08T22:09:23;20.40;99.90
43015;DHT22;28637;50.554;7.032;2023-07-08T22:14:24;20.40;99.90
43015;DHT22;28637;50.554;7.032;2023-07-08T22:19:24;20.40;99.90
43015;DHT22;28637;50.554;7.032;2023-07-08T22:24:26;20.30;99.90
43015;DHT22;28637;50.554;7.032;2023-07-08T22:29:27;19.90;99.90
43015;DHT22;28637;50.554;7.032;2023-07-08T22:34:27;19.90;99.90
43015;DHT22;28637;50.554;7.032;2023-07-08T22:39:28;20.00;99.90
43015;DHT22;28637;50.554;7.032;2023-07-08T22:44:29;20.00;99.90
43015;DHT22;28637;50.554;7.032;2023-07-08T22:49:29;19.70;99.90
43015;DHT22;28637;50.554;7.032;2023-07-08T22:54:30;19.60;99.90
43015;DHT22;28637;50.554;7.032;2023-07-08T22:59:31;19.50;99.90
43015;DHT22;28637;50.554;7.032;2023-07-08T23:04:32;19.70;99.90
43015;DHT22;28637;50.554;7.032;2023-07-08T23:09:33;19.90;99.90
43015;DHT22;28637;50.554;7.032;2023-07-08T23:14:33;19.90;99.90
43015;DHT22;28637;50.554;7.032;2023-07-08T23:19:34;19.80;99.90
43015;DHT22;28637;50.554;7.032;2023-07-08T23:24:35;19.90;99.90
43015;DHT22;28637;50.554;7.032;2023-07-08T23:29:36;19.90;99.90
43015;DHT22;28637;50.554;7.032;2023-07-08T23:34:37;19.80;99.90
43015;DHT22;28637;50.554;7.032;2023-07-08T23:39:39;19.80;99.90
43015;DHT22;28637;50.554;7.032;2023-07-08T23:44:40;19.80;99.90
43015;DHT22;28637;50.554;7.032;2023-07-08T23:49:42;19.90;99.90
43015;DHT22;28637;50.554;7.032;2023-07-08T23:54:43;20.30;99.90
43015;DHT22;28637;50.554;7.032;2023-07-08T23:59:49;20.40;99.90
